sensor_id;sensor_type;location;lat;lon;timestamp;pressure;altitude;pressure_sealevel;temperature;humidity
47761;BME280;33524;55.434;38.520;2023-02-10T00:01:40;101486.03;;;-1.79;83.08
47761;BME280;33524;55.434;38.520;2023-02-10T00:04:11;101484.34;;;-1.91;80.66
47761;BME280;33524;55.434;38.520;2023-02-10T00:06:39;101481.78;;;-1.99;81.12
47761;BME280;33524;55.434;38.520;2023-02-10T00:09:12;101476.50;;;-1.68;80.38
47761;BME280;33524;55.434;38.520;2023-02-10T00:11:40;101469.75;;;-2.03;82.06
47761;BME280;33524;55.434;38.520;2023-02-10T00:14:30;101457.63;;;-1.76;81.43
47761;BME280;33524;55.434;38.520;2023-02-10T00:16:58;101454.31;;;-2.06;77.65
47761;BME280;33524;55.434;38.520;2023-02-10T00:19:28;101453.53;;;-2.31;78.58
47761;BME280;33524;55.434;38.520;2023-02-10T00:21:59;101442.38;;;-2.35;78.22
47761;BME280;33524;55.434;38.520;2023-02-10T00:24:27;101436.19;;;-1.92;80.73
47761;BME280;33524;55.434;38.520;2023-02-10T00:26:55;101432.03;;;-2.22;78.28
47761;BME280;33524;55.434;38.520;2023-02-10T00:29:25;101432.78;;;-1.91;78.85
47761;BME280;33524;55.434;38.520;2023-02-10T00:31:55;101425.91;;;-1.97;78.27
47761;BME280;33524;55.434;38.520;2023-02-10T00:34:26;101426.00;;;-2.12;80.93
47761;BME280;33524;55.434;38.520;2023-02-10T00:36:55;101432.81;;;-2.05;80.26
47761;BME280;33524;55.434;38.520;2023-02-10T00:39:23;101429.41;;;-2.03;80.00
47761;BME280;33524;55.434;38.520;2023-02-10T00:41:52;101424.88;;;-1.59;82.23
47761;BME280;33524;55.434;38.520;2023-02-10T00:44:20;101412.06;;;-1.71;80.78
47761;BME280;33524;55.434;38.520;2023-02-10T00:46:48;101403.66;;;-2.16;79.20
47761;BME280;33524;55.434;38.520;2023-02-10T00:49:16;101399.13;;;-1.65;82.93
47761;BME280;33524;55.434;38.520;2023-02-10T00:51:44;101397.47;;;-1.75;81.86
47761;BME280;33524;55.434;38.520;2023-02-10T00:54:15;101396.66;;;-1.84;80.97
47761;BME280;33524;55.434;38.520;2023-02-10T00:56:44;101383.66;;;-1.70;83.31
47761;BME280;33524;55.434;38.520;2023-02-10T00:59:13;101383.31;;;-1.19;82.34
47761;BME280;33524;55.434;38.520;2023-02-10T01:01:41;101380.25;;;-1.73;79.68
47761;BME280;33524;55.434;38.520;2023-02-10T01:04:12;101371.75;;;-1.88;80.20
47761;BME280;33524;55.434;38.520;2023-02-10T01:06:40;101371.81;;;-2.01;81.86
47761;BME280;33524;55.434;38.520;2023-02-10T01:09:08;101376.84;;;-1.78;83.75
47761;BME280;33524;55.434;38.520;2023-02-10T01:11:36;101378.66;;;-1.96;80.80
47761;BME280;33524;55.434;38.520;2023-02-10T01:14:05;101371.75;;;-1.92;83.13
47761;BME280;33524;55.434;38.520;2023-02-10T01:16:33;101370.94;;;-1.99;81.95
47761;BME280;33524;55.434;38.520;2023-02-10T01:19:01;101364.16;;;-2.17;82.65
47761;BME280;33524;55.434;38.520;2023-02-10T01:21:30;101356.47;;;-2.34;81.96
47761;BME280;33524;55.434;38.520;2023-02-10T01:23:58;101363.97;;;-1.86;83.30
47761;BME280;33524;55.434;38.520;2023-02-10T01:26:26;101361.59;;;-2.25;82.04
47761;BME280;33524;55.434;38.520;2023-02-10T01:28:54;101349.53;;;-2.19;81.93
47761;BME280;33524;55.434;38.520;2023-02-10T01:31:22;101347.84;;;-2.20;82.79
47761;BME280;33524;55.434;38.520;2023-02-10T01:33:52;101339.34;;;-2.41;82.25
47761;BME280;33524;55.434;38.520;2023-02-10T01:36:23;101332.37;;;-2.24;83.11
47761;BME280;33524;55.434;38.520;2023-02-10T01:38:52;101339.03;;;-1.84;83.27
47761;BME280;33524;55.434;38.520;2023-02-10T01:41:22;101328.94;;;-2.15;82.03
47761;BME280;33524;55.434;38.520;2023-02-10T01:46:54;101324.63;;;-2.16;83.89
47761;BME280;33524;55.434;38.520;2023-02-10T01:49:35;101328.09;;;-2.28;83.39
47761;BME280;33524;55.434;38.520;2023-02-10T01:52:24;101322.00;;;-2.11;83.17
47761;BME280;33524;55.434;38.520;2023-02-10T01:55:05;101332.47;;;-2.45;81.62
47761;BME280;33524;55.434;38.520;2023-02-10T01:57:35;101311.84;;;-2.42;84.45
47761;BME280;33524;55.434;38.520;2023-02-10T02:00:09;101310.12;;;-2.37;84.12
47761;BME280;33524;55.434;38.520;2023-02-10T02:02:43;101310.91;;;-2.21;84.29
47761;BME280;33524;55.434;38.520;2023-02-10T02:05:29;101304.94;;;-2.34;81.56
47761;BME280;33524;55.434;38.520;2023-02-10T02:08:11;101303.16;;;-2.15;80.85
47761;BME280;33524;55.434;38.520;2023-02-10T02:13:43;101288.66;;;-2.40;81.52
47761;BME280;33524;55.434;38.520;2023-02-10T02:26:09;101286.84;;;-2.18;82.90
47761;BME280;33524;55.434;38.520;2023-02-10T02:31:28;101285.25;;;-2.41;82.25
47761;BME280;33524;55.434;38.520;2023-02-10T02:34:13;101286.16;;;-2.59;82.73
47761;BME280;33524;55.434;38.520;2023-02-10T02:37:12;101286.22;;;-2.70;81.86
47761;BME280;33524;55.434;38.520;2023-02-10T02:39:49;101276.78;;;-2.72;82.47
47761;BME280;33524;55.434;38.520;2023-02-10T02:42:26;101237.22;;;-2.57;83.52
47761;BME280;33524;55.434;38.520;2023-02-10T02:53:37;101259.47;;;-2.44;81.33
47761;BME280;33524;55.434;38.520;2023-02-10T02:56:16;101261.28;;;-2.63;81.41
47761;BME280;33524;55.434;38.520;2023-02-10T02:59:42;101255.38;;;-2.79;81.95
47761;BME280;33524;55.434;38.520;2023-02-10T03:01:53;101254.50;;;-2.78;82.13
47761;BME280;33524;55.434;38.520;2023-02-10T03:04:27;101249.28;;;-2.67;84.64
47761;BME280;33524;55.434;38.520;2023-02-10T03:06:56;101246.75;;;-2.69;84.26
47761;BME280;33524;55.434;38.520;2023-02-10T03:09:26;101239.09;;;-2.87;82.78
47761;BME280;33524;55.434;38.520;2023-02-10T03:11:54;101226.25;;;-3.01;83.19
47761;BME280;33524;55.434;38.520;2023-02-10T03:14:23;101225.38;;;-2.95;83.32
47761;BME280;33524;55.434;38.520;2023-02-10T03:16:51;101227.91;;;-2.77;83.77
47761;BME280;33524;55.434;38.520;2023-02-10T03:19:21;101221.81;;;-2.64;83.45
47761;BME280;33524;55.434;38.520;2023-02-10T03:21:50;101224.47;;;-2.80;82.55
47761;BME280;33524;55.434;38.520;2023-02-10T03:24:18;101218.41;;;-2.70;82.55
47761;BME280;33524;55.434;38.520;2023-02-10T03:26:45;101211.59;;;-2.82;83.13
47761;BME280;33524;55.434;38.520;2023-02-10T03:29:14;101202.22;;;-2.95;82.94
47761;BME280;33524;55.434;38.520;2023-02-10T03:31:45;101192.72;;;-2.82;83.05
47761;BME280;33524;55.434;38.520;2023-02-10T03:34:13;101190.94;;;-2.67;83.59
47761;BME280;33524;55.434;38.520;2023-02-10T03:36:42;101187.44;;;-2.58;82.29
47761;BME280;33524;55.434;38.520;2023-02-10T03:39:13;101177.31;;;-2.90;82.45
47761;BME280;33524;55.434;38.520;2023-02-10T03:41:41;101171.28;;;-2.83;82.35
47761;BME280;33524;55.434;38.520;2023-02-10T03:44:09;101171.34;;;-2.97;82.45
47761;BME280;33524;55.434;38.520;2023-02-10T03:46:36;101176.41;;;-2.77;83.87
47761;BME280;33524;55.434;38.520;2023-02-10T03:49:05;101174.56;;;-2.61;82.25
47761;BME280;33524;55.434;38.520;2023-02-10T03:51:36;101167.59;;;-2.39;82.90
47761;BME280;33524;55.434;38.520;2023-02-10T03:54:04;101169.28;;;-2.35;82.85
47761;BME280;33524;55.434;38.520;2023-02-10T03:56:32;101164.22;;;-2.50;82.55
47761;BME280;33524;55.434;38.520;2023-02-10T03:59:01;101154.00;;;-2.66;80.82
47761;BME280;33524;55.434;38.520;2023-02-10T04:01:33;101150.72;;;-2.89;81.02
47761;BME280;33524;55.434;38.520;2023-02-10T04:04:02;101149.81;;;-2.84;81.92
47761;BME280;33524;55.434;38.520;2023-02-10T04:06:31;101151.50;;;-2.75;80.85
47761;BME280;33524;55.434;38.520;2023-02-10T04:08:59;101146.28;;;-2.67;82.12
47761;BME280;33524;55.434;38.520;2023-02-10T04:11:27;101137.56;;;-2.45;82.25
47761;BME280;33524;55.434;38.520;2023-02-10T04:13:55;101137.56;;;-2.41;81.14
47761;BME280;33524;55.434;38.520;2023-02-10T04:16:23;101143.56;;;-2.44;80.38
47761;BME280;33524;55.434;38.520;2023-02-10T04:18:55;101131.13;;;-1.93;82.89
47761;BME280;33524;55.434;38.520;2023-02-10T04:21:23;101140.97;;;-2.42;79.63
47761;BME280;33524;55.434;38.520;2023-02-10T04:23:52;101145.34;;;-2.52;81.43
47761;BME280;33524;55.434;38.520;2023-02-10T04:26:20;101145.47;;;-2.75;79.39
47761;BME280;33524;55.434;38.520;2023-02-10T04:28:48;101124.03;;;-2.73;80.97
47761;BME280;33524;55.434;38.520;2023-02-10T04:31:16;101141.87;;;-2.48;82.01
47761;BME280;33524;55.434;38.520;2023-02-10T04:33:48;101135.06;;;-2.58;80.11
47761;BME280;33524;55.434;38.520;2023-02-10T04:36:16;101141.06;;;-2.52;79.51
47761;BME280;33524;55.434;38.520;2023-02-10T04:38:44;101123.25;;;-2.90;79.02
47761;BME280;33524;55.434;38.520;2023-02-10T04:41:12;101136.22;;;-3.16;79.39
47761;BME280;33524;55.434;38.520;2023-02-10T04:43:43;101126.38;;;-2.42;80.23
47761;BME280;33524;55.434;38.520;2023-02-10T04:46:10;101130.22;;;-3.11;78.87
47761;BME280;33524;55.434;38.520;2023-02-10T04:48:39;101140.31;;;-2.71;78.69
47761;BME280;33524;55.434;38.520;2023-02-10T04:51:11;101136.94;;;-2.80;79.13
47761;BME280;33524;55.434;38.520;2023-02-10T04:53:43;101135.19;;;-2.71;82.50
47761;BME280;33524;55.434;38.520;2023-02-10T04:56:14;101123.16;;;-2.70;80.34
47761;BME280;33524;55.434;38.520;2023-02-10T04:58:43;101120.63;;;-2.81;78.49
47761;BME280;33524;55.434;38.520;2023-02-10T05:01:11;101122.19;;;-2.54;78.00
47761;BME280;33524;55.434;38.520;2023-02-10T05:03:39;101115.41;;;-2.72;79.40
47761;BME280;33524;55.434;38.520;2023-02-10T05:06:12;101118.16;;;-2.99;79.19
47761;BME280;33524;55.434;38.520;2023-02-10T05:08:43;101118.16;;;-3.04;79.68
47761;BME280;33524;55.434;38.520;2023-02-10T05:11:13;101118.19;;;-3.09;79.21
47761;BME280;33524;55.434;38.520;2023-02-10T05:13:42;101110.94;;;-2.44;80.60
47761;BME280;33524;55.434;38.520;2023-02-10T05:16:14;101110.84;;;-2.33;79.84
47761;BME280;33524;55.434;38.520;2023-02-10T05:18:43;101121.53;;;-2.85;79.73
47761;BME280;33524;55.434;38.520;2023-02-10T05:21:12;101103.53;;;-2.94;78.03
47761;BME280;33524;55.434;38.520;2023-02-10T05:23:40;101100.03;;;-2.81;77.87
47761;BME280;33524;55.434;38.520;2023-02-10T05:26:09;101086.19;;;-2.63;78.69
47761;BME280;33524;55.434;38.520;2023-02-10T05:28:36;101076.81;;;-2.72;77.12
47761;BME280;33524;55.434;38.520;2023-02-10T05:31:07;101078.56;;;-2.77;79.81
47761;BME280;33524;55.434;38.520;2023-02-10T05:33:36;101074.22;;;-2.70;77.27
47761;BME280;33524;55.434;38.520;2023-02-10T05:36:04;101068.94;;;-2.55;76.88
47761;BME280;33524;55.434;38.520;2023-02-10T05:38:32;101067.91;;;-2.34;79.76
47761;BME280;33524;55.434;38.520;2023-02-10T05:41:01;101067.91;;;-2.34;79.95
47761;BME280;33524;55.434;38.520;2023-02-10T05:43:29;101061.69;;;-2.08;80.71
47761;BME280;33524;55.434;38.520;2023-02-10T05:45:57;101052.34;;;-2.18;80.05
47761;BME280;33524;55.434;38.520;2023-02-10T05:48:25;101060.50;;;-2.74;77.64
47761;BME280;33524;55.434;38.520;2023-02-10T05:50:56;101071.88;;;-3.09;77.51
47761;BME280;33524;55.434;38.520;2023-02-10T05:53:24;101068.78;;;-2.33;80.47
47761;BME280;33524;55.434;38.520;2023-02-10T05:55:52;101059.56;;;-2.64;76.62
47761;BME280;33524;55.434;38.520;2023-02-10T05:58:20;101063.28;;;-3.01;77.18
47761;BME280;33524;55.434;38.520;2023-02-10T06:00:48;101057.16;;;-2.85;77.17
47761;BME280;33524;55.434;38.520;2023-02-10T06:03:16;101054.28;;;-2.47;76.96
47761;BME280;33524;55.434;38.520;2023-02-10T06:05:44;101057.84;;;-2.60;77.37
47761;BME280;33524;55.434;38.520;2023-02-10T06:08:13;101039.56;;;-2.31;79.88
47761;BME280;33524;55.434;38.520;2023-02-10T06:10:41;101049.25;;;-2.60;77.66
47761;BME280;33524;55.434;38.520;2023-02-10T06:13:09;101044.06;;;-2.57;76.97
47761;BME280;33524;55.434;38.520;2023-02-10T06:15:37;101046.47;;;-2.34;78.34
47761;BME280;33524;55.434;38.520;2023-02-10T06:18:05;101045.22;;;-1.96;78.95
47761;BME280;33524;55.434;38.520;2023-02-10T06:20:33;101046.28;;;-2.13;76.92
47761;BME280;33524;55.434;38.520;2023-02-10T06:23:01;101044.22;;;-1.81;77.73
47761;BME280;33524;55.434;38.520;2023-02-10T06:25:32;101045.44;;;-2.16;76.68
47761;BME280;33524;55.434;38.520;2023-02-10T06:28:03;101048.06;;;-2.21;77.56
47761;BME280;33524;55.434;38.520;2023-02-10T06:30:35;101044.88;;;-2.48;76.46
47761;BME280;33524;55.434;38.520;2023-02-10T06:33:06;101045.59;;;-2.35;76.98
47761;BME280;33524;55.434;38.520;2023-02-10T06:35:34;101040.63;;;-2.55;75.98
47761;BME280;33524;55.434;38.520;2023-02-10T06:38:04;101040.56;;;-2.49;75.84
47761;BME280;33524;55.434;38.520;2023-02-10T06:40:32;101029.22;;;-2.26;77.30
47761;BME280;33524;55.434;38.520;2023-02-10T06:43:00;101029.28;;;-2.34;76.95
47761;BME280;33524;55.434;38.520;2023-02-10T06:45:29;101026.56;;;-2.21;75.02
47761;BME280;33524;55.434;38.520;2023-02-10T06:47:57;101025.78;;;-2.28;78.87
47761;BME280;33524;55.434;38.520;2023-02-10T06:50:25;101015.59;;;-2.42;77.79
47761;BME280;33524;55.434;38.520;2023-02-10T06:52:56;101006.97;;;-2.35;79.04
47761;BME280;33524;55.434;38.520;2023-02-10T06:55:24;100996.91;;;-1.77;78.45
47761;BME280;33524;55.434;38.520;2023-02-10T06:57:52;100990.31;;;-2.03;77.00
47761;BME280;33524;55.434;38.520;2023-02-10T07:00:20;100990.22;;;-1.94;74.25
47761;BME280;33524;55.434;38.520;2023-02-10T07:02:48;100983.09;;;-1.73;77.28
47761;BME280;33524;55.434;38.520;2023-02-10T07:05:17;100981.81;;;-1.42;76.57
47761;BME280;33524;55.434;38.520;2023-02-10T07:07:44;100984.66;;;-1.62;73.30
47761;BME280;33524;55.434;38.520;2023-02-10T07:10:13;100975.09;;;-1.52;74.60
47761;BME280;33524;55.434;38.520;2023-02-10T07:12:41;100963.91;;;-1.51;74.30
47761;BME280;33524;55.434;38.520;2023-02-10T07:15:09;100965.78;;;-1.64;74.50
47761;BME280;33524;55.434;38.520;2023-02-10T07:17:37;100952.88;;;-1.03;73.67
47761;BME280;33524;55.434;38.520;2023-02-10T07:20:06;100944.97;;;-0.92;70.81
47761;BME280;33524;55.434;38.520;2023-02-10T07:22:34;100939.81;;;-0.94;70.19
47761;BME280;33524;55.434;38.520;2023-02-10T07:25:01;100937.03;;;-0.82;72.16
47761;BME280;33524;55.434;38.520;2023-02-10T07:27:30;100939.06;;;-1.00;68.89
47761;BME280;33524;55.434;38.520;2023-02-10T07:29:57;100927.72;;;-0.90;68.89
47761;BME280;33524;55.434;38.520;2023-02-10T07:32:25;100920.50;;;-0.71;69.34
47761;BME280;33524;55.434;38.520;2023-02-10T07:34:53;100919.47;;;-0.63;71.49
47761;BME280;33524;55.434;38.520;2023-02-10T07:37:21;100920.31;;;-0.62;68.52
47761;BME280;33524;55.434;38.520;2023-02-10T07:39:49;100921.81;;;-0.49;69.27
47761;BME280;33524;55.434;38.520;2023-02-10T07:42:17;100925.28;;;-0.50;68.20
47761;BME280;33524;55.434;38.520;2023-02-10T07:44:47;100919.81;;;-0.33;68.56
47761;BME280;33524;55.434;38.520;2023-02-10T07:47:15;100910.81;;;-0.15;70.30
47761;BME280;33524;55.434;38.520;2023-02-10T07:49:43;100890.69;;;0.01;66.85
47761;BME280;33524;55.434;38.520;2023-02-10T07:52:10;100884.47;;;0.10;66.40
47761;BME280;33524;55.434;38.520;2023-02-10T07:54:38;100875.88;;;0.08;64.84
47761;BME280;33524;55.434;38.520;2023-02-10T07:57:06;100884.00;;;-0.09;66.98
47761;BME280;33524;55.434;38.520;2023-02-10T07:59:34;100850.03;;;-0.33;69.75
47761;BME280;33524;55.434;38.520;2023-02-10T08:02:02;100867.19;;;-0.29;69.61
47761;BME280;33524;55.434;38.520;2023-02-10T08:04:31;100853.94;;;-0.15;69.61
47761;BME280;33524;55.434;38.520;2023-02-10T08:06:59;100839.84;;;-0.42;66.46
47761;BME280;33524;55.434;38.520;2023-02-10T08:09:27;100823.03;;;-0.19;69.45
47761;BME280;33524;55.434;38.520;2023-02-10T08:11:58;100805.69;;;-0.14;70.48
47761;BME280;33524;55.434;38.520;2023-02-10T08:14:26;100803.88;;;-0.11;68.34
47761;BME280;33524;55.434;38.520;2023-02-10T08:16:54;100808.03;;;-0.02;68.41
47761;BME280;33524;55.434;38.520;2023-02-10T08:19:25;100809.47;;;0.08;67.35
47761;BME280;33524;55.434;38.520;2023-02-10T08:21:53;100808.72;;;0.05;67.85
47761;BME280;33524;55.434;38.520;2023-02-10T08:24:21;100804.31;;;0.08;67.46
47761;BME280;33524;55.434;38.520;2023-02-10T08:26:49;100806.09;;;0.06;68.19
47761;BME280;33524;55.434;38.520;2023-02-10T08:29:16;100801.78;;;0.07;67.23
47761;BME280;33524;55.434;38.520;2023-02-10T08:31:48;100785.69;;;-0.06;68.89
47761;BME280;33524;55.434;38.520;2023-02-10T08:34:17;100802.50;;;0.13;65.43
47761;BME280;33524;55.434;38.520;2023-02-10T08:36:46;100797.09;;;0.23;65.37
47761;BME280;33524;55.434;38.520;2023-02-10T08:39:14;100783.28;;;0.24;65.69
47761;BME280;33524;55.434;38.520;2023-02-10T08:41:42;100767.88;;;0.19;65.27
47761;BME280;33524;55.434;38.520;2023-02-10T08:44:14;100765.38;;;0.14;68.96
47761;BME280;33524;55.434;38.520;2023-02-10T08:46:42;100754.22;;;0.12;68.51
47761;BME280;33524;55.434;38.520;2023-02-10T08:49:10;100766.16;;;0.18;68.59
47761;BME280;33524;55.434;38.520;2023-02-10T08:51:38;100776.41;;;0.23;66.97
47761;BME280;33524;55.434;38.520;2023-02-10T08:54:06;100768.53;;;0.27;64.73
47761;BME280;33524;55.434;38.520;2023-02-10T08:56:34;100750.53;;;0.23;67.70
47761;BME280;33524;55.434;38.520;2023-02-10T08:59:02;100751.25;;;0.29;67.55
47761;BME280;33524;55.434;38.520;2023-02-10T09:01:31;100744.47;;;0.24;65.77
47761;BME280;33524;55.434;38.520;2023-02-10T09:03:59;100752.44;;;0.14;65.19
47761;BME280;33524;55.434;38.520;2023-02-10T09:06:31;100753.59;;;0.03;63.54
47761;BME280;33524;55.434;38.520;2023-02-10T09:09:00;100766.28;;;0.13;64.71
47761;BME280;33524;55.434;38.520;2023-02-10T09:11:28;100767.75;;;0.24;65.11
47761;BME280;33524;55.434;38.520;2023-02-10T09:13:56;100763.28;;;0.30;66.42
47761;BME280;33524;55.434;38.520;2023-02-10T09:16:28;100757.19;;;0.33;63.89
47761;BME280;33524;55.434;38.520;2023-02-10T09:18:56;100758.97;;;0.65;64.22
47761;BME280;33524;55.434;38.520;2023-02-10T09:21:24;100745.37;;;0.90;64.47
47761;BME280;33524;55.434;38.520;2023-02-10T09:23:58;100731.34;;;0.98;63.32
47761;BME280;33524;55.434;38.520;2023-02-10T09:26:26;100735.81;;;0.93;65.30
47761;BME280;33524;55.434;38.520;2023-02-10T09:28:54;100742.53;;;0.66;63.65
47761;BME280;33524;55.434;38.520;2023-02-10T09:31:22;100744.09;;;0.39;62.85
47761;BME280;33524;55.434;38.520;2023-02-10T09:33:50;100744.19;;;0.36;65.07
47761;BME280;33524;55.434;38.520;2023-02-10T09:36:19;100745.03;;;0.01;64.65
47761;BME280;33524;55.434;38.520;2023-02-10T09:38:48;100738.44;;;0.59;67.04
47761;BME280;33524;55.434;38.520;2023-02-10T09:52:24;100692.16;;;3.44;54.26
47761;BME280;33524;55.434;38.520;2023-02-10T09:54:58;100693.53;;;3.08;55.76
47761;BME280;33524;55.434;38.520;2023-02-10T09:57:37;100694.66;;;3.24;53.88
47761;BME280;33524;55.434;38.520;2023-02-10T10:00:30;100682.50;;;2.77;55.08
47761;BME280;33524;55.434;38.520;2023-02-10T10:03:05;100681.53;;;3.03;54.74
47761;BME280;33524;55.434;38.520;2023-02-10T10:05:45;100669.16;;;2.87;58.87
47761;BME280;33524;55.434;38.520;2023-02-10T10:11:26;100647.09;;;2.98;52.90
47761;BME280;33524;55.434;38.520;2023-02-10T10:13:55;100652.03;;;2.57;55.91
47761;BME280;33524;55.434;38.520;2023-02-10T10:16:42;100649.28;;;2.12;57.84
47761;BME280;33524;55.434;38.520;2023-02-10T10:25:28;100604.78;;;1.16;63.61
47761;BME280;33524;55.434;38.520;2023-02-10T10:28:18;100603.19;;;1.12;64.06
47761;BME280;33524;55.434;38.520;2023-02-10T10:33:48;100585.09;;;1.10;60.85
47761;BME280;33524;55.434;38.520;2023-02-10T10:36:27;100586.97;;;1.05;63.45
47761;BME280;33524;55.434;38.520;2023-02-10T10:39:03;100575.31;;;0.90;59.66
47761;BME280;33524;55.434;38.520;2023-02-10T10:41:38;100565.69;;;0.95;64.70
47761;BME280;33524;55.434;38.520;2023-02-10T10:44:10;100564.09;;;0.91;59.20
47761;BME280;33524;55.434;38.520;2023-02-10T10:46:55;100551.03;;;0.94;63.86
47761;BME280;33524;55.434;38.520;2023-02-10T10:49:26;100545.44;;;0.78;59.24
47761;BME280;33524;55.434;38.520;2023-02-10T10:52:29;100545.59;;;0.74;59.04
47761;BME280;33524;55.434;38.520;2023-02-10T10:55:02;100545.09;;;0.61;59.51
47761;BME280;33524;55.434;38.520;2023-02-10T10:57:32;100542.91;;;0.47;62.52
47761;BME280;33524;55.434;38.520;2023-02-10T11:00:23;100521.03;;;0.57;65.25
47761;BME280;33524;55.434;38.520;2023-02-10T11:02:57;100547.78;;;0.27;60.15
47761;BME280;33524;55.434;38.520;2023-02-10T11:05:35;100544.53;;;0.20;62.08
47761;BME280;33524;55.434;38.520;2023-02-10T11:08:05;100547.78;;;0.27;62.56
47761;BME280;33524;55.434;38.520;2023-02-10T11:13:21;100550.94;;;0.38;63.78
47761;BME280;33524;55.434;38.520;2023-02-10T11:16:08;100551.78;;;0.07;58.67
47761;BME280;33524;55.434;38.520;2023-02-10T11:18:38;100540.34;;;0.14;60.03
47761;BME280;33524;55.434;38.520;2023-02-10T11:21:09;100538.41;;;0.23;59.01
47761;BME280;33524;55.434;38.520;2023-02-10T11:23:53;100533.03;;;0.30;64.97
47761;BME280;33524;55.434;38.520;2023-02-10T11:26:25;100533.16;;;0.26;59.75
47761;BME280;33524;55.434;38.520;2023-02-10T11:28:55;100521.28;;;0.18;61.83
47761;BME280;33524;55.434;38.520;2023-02-10T11:31:32;100528.03;;;0.24;59.87
47761;BME280;33524;55.434;38.520;2023-02-10T11:34:27;100521.22;;;0.22;60.33
47761;BME280;33524;55.434;38.520;2023-02-10T11:36:59;100511.13;;;0.44;63.03
47761;BME280;33524;55.434;38.520;2023-02-10T11:39:43;100504.22;;;0.13;62.41
47761;BME280;33524;55.434;38.520;2023-02-10T11:42:19;100506.38;;;-0.03;60.01
47761;BME280;33524;55.434;38.520;2023-02-10T11:47:28;100502.16;;;-0.07;64.09
47761;BME280;33524;55.434;38.520;2023-02-10T11:49:58;100500.94;;;0.06;61.91
47761;BME280;33524;55.434;38.520;2023-02-10T11:52:28;100483.63;;;0.08;65.28
47761;BME280;33524;55.434;38.520;2023-02-10T11:55:01;100491.53;;;0.04;61.19
47761;BME280;33524;55.434;38.520;2023-02-10T12:03:52;100469.31;;;-0.04;62.35
47761;BME280;33524;55.434;38.520;2023-02-10T12:12:04;100454.94;;;0.17;59.99
47761;BME280;33524;55.434;38.520;2023-02-10T12:18:17;100453.94;;;0.23;64.88
47761;BME280;33524;55.434;38.520;2023-02-10T12:23:57;100446.44;;;0.12;60.95
47761;BME280;33524;55.434;38.520;2023-02-10T12:26:50;100443.03;;;0.12;64.53
47761;BME280;33524;55.434;38.520;2023-02-10T12:41:42;100425.62;;;-0.13;62.36
47761;BME280;33524;55.434;38.520;2023-02-10T12:43:54;100407.63;;;-0.16;61.37
47761;BME280;33524;55.434;38.520;2023-02-10T12:46:58;100411.00;;;-0.14;61.64
47761;BME280;33524;55.434;38.520;2023-02-10T12:52:21;100395.16;;;-0.02;65.20
47761;BME280;33524;55.434;38.520;2023-02-10T12:55:01;100356.59;;;-0.09;67.52
47761;BME280;33524;55.434;38.520;2023-02-10T12:57:37;100382.16;;;-0.30;61.91
47761;BME280;33524;55.434;38.520;2023-02-10T13:00:31;100386.50;;;-0.32;64.22
47761;BME280;33524;55.434;38.520;2023-02-10T13:03:30;100378.22;;;-0.43;64.46
47761;BME280;33524;55.434;38.520;2023-02-10T13:09:03;100363.53;;;-0.11;67.92
47761;BME280;33524;55.434;38.520;2023-02-10T13:12:02;100358.00;;;0.01;67.43
47761;BME280;33524;55.434;38.520;2023-02-10T13:14:31;100356.69;;;-0.44;63.62
47761;BME280;33524;55.434;38.520;2023-02-10T13:17:04;100348.69;;;-0.34;64.00
47761;BME280;33524;55.434;38.520;2023-02-10T13:22:38;100329.28;;;0.10;61.50
47761;BME280;33524;55.434;38.520;2023-02-10T13:25:18;100326.44;;;0.46;66.33
47761;BME280;33524;55.434;38.520;2023-02-10T13:28:13;100323.34;;;0.35;63.07
47761;BME280;33524;55.434;38.520;2023-02-10T13:30:53;100327.88;;;0.00;62.16
47761;BME280;33524;55.434;38.520;2023-02-10T13:36:34;100332.09;;;-0.27;64.72
47761;BME280;33524;55.434;38.520;2023-02-10T13:39:13;100323.81;;;-0.38;67.23
47761;BME280;33524;55.434;38.520;2023-02-10T13:41:46;100331.56;;;-0.68;62.38
47761;BME280;33524;55.434;38.520;2023-02-10T13:46:52;100310.91;;;-0.70;68.57
47761;BME280;33524;55.434;38.520;2023-02-10T13:49:23;100324.19;;;-1.16;62.45
47761;BME280;33524;55.434;38.520;2023-02-10T13:52:02;100318.13;;;-1.50;62.60
47761;BME280;33524;55.434;38.520;2023-02-10T13:54:33;100295.81;;;-1.51;64.82
47761;BME280;33524;55.434;38.520;2023-02-10T13:57:03;100322.00;;;-1.32;66.64
47761;BME280;33524;55.434;38.520;2023-02-10T13:59:40;100330.34;;;-1.58;63.24
47761;BME280;33524;55.434;38.520;2023-02-10T14:02:18;100317.75;;;-1.70;63.83
47761;BME280;33524;55.434;38.520;2023-02-10T14:04:52;100323.81;;;-1.73;66.25
47761;BME280;33524;55.434;38.520;2023-02-10T14:13:04;100317.84;;;-2.12;66.55
47761;BME280;33524;55.434;38.520;2023-02-10T14:15:40;100330.31;;;-1.94;63.21
47761;BME280;33524;55.434;38.520;2023-02-10T14:18:29;100328.06;;;-1.70;72.84
47761;BME280;33524;55.434;38.520;2023-02-10T14:23:32;100314.47;;;-2.16;69.94
47761;BME280;33524;55.434;38.520;2023-02-10T14:26:07;100307.53;;;-2.12;65.09
47761;BME280;33524;55.434;38.520;2023-02-10T14:28:40;100302.88;;;-2.35;63.52
47761;BME280;33524;55.434;38.520;2023-02-10T14:31:52;100294.97;;;-2.28;64.73
47761;BME280;33524;55.434;38.520;2023-02-10T14:34:27;100285.13;;;-2.49;64.06
47761;BME280;33524;55.434;38.520;2023-02-10T14:36:59;100288.69;;;-2.14;68.09
47761;BME280;33524;55.434;38.520;2023-02-10T14:39:28;100282.16;;;-2.31;67.80
47761;BME280;33524;55.434;38.520;2023-02-10T14:41:59;100288.25;;;-2.35;65.55
47761;BME280;33524;55.434;38.520;2023-02-10T14:44:39;100299.75;;;-2.51;69.00
47761;BME280;33524;55.434;38.520;2023-02-10T14:47:19;100302.44;;;-2.57;65.55
47761;BME280;33524;55.434;38.520;2023-02-10T14:49:49;100294.50;;;-2.06;71.41
47761;BME280;33524;55.434;38.520;2023-02-10T14:55:30;100299.41;;;-2.76;64.43
47761;BME280;33524;55.434;38.520;2023-02-10T14:58:13;100294.50;;;-2.47;65.24
47761;BME280;33524;55.434;38.520;2023-02-10T15:03:26;100302.44;;;-2.57;68.79